Time;durP1;ratioP1;P1;durP2;ratioP2;P2;SDS_P1;SDS_P2;PMS_P1;PMS_P2;Temp;Humidity;BMP_temperature;BMP_pressure;BME280_temperature;BME280_humidity;BME280_pressure;Samples;Min_cycle;Max_cycle;Signal;HPM_P1;HPM_P2
2022/04/08 00:01:53;;;;;;;4.00;0.60;;;6.00;94.10;;;;;;4956961;28;20043;-80
2022/04/08 00:04:22;;;;;;;2.50;0.40;;;6.00;94.00;;;;;;4957448;28;20054;-80
2022/04/08 00:06:49;;;;;;;3.78;1.10;;;6.00;94.00;;;;;;4972269;28;20054;-81
2022/04/08 00:09:16;;;;;;;3.35;0.43;;;6.00;94.00;;;;;;4969566;28;20054;-80
2022/04/08 00:11:46;;;;;;;3.10;0.40;;;6.10;94.00;;;;;;4946678;28;20058;-79
2022/04/08 00:14:14;;;;;;;1.65;0.30;;;6.10;94.00;;;;;;4958759;28;20047;-80
2022/04/08 00:16:42;;;;;;;7.15;1.05;;;6.10;94.00;;;;;;4959692;28;20381;-80
2022/04/08 00:19:09;;;;;;;2.78;0.30;;;6.10;93.90;;;;;;4960784;28;20056;-80
2022/04/08 00:21:36;;;;;;;4.85;0.50;;;6.10;93.90;;;;;;4967871;28;20107;-84
2022/04/08 00:24:04;;;;;;;3.17;0.40;;;6.10;93.90;;;;;;4974417;28;20039;-85
2022/04/08 00:26:31;;;;;;;6.38;0.50;;;6.10;93.80;;;;;;4971734;28;20503;-84
2022/04/08 00:28:58;;;;;;;4.40;0.40;;;6.10;94.00;;;;;;4969645;28;20051;-84
2022/04/08 00:31:26;;;;;;;9.35;0.70;;;6.10;93.60;;;;;;4940062;28;20051;-84
2022/04/08 00:33:53;;;;;;;4.28;0.40;;;6.10;93.60;;;;;;4943626;28;20555;-84
2022/04/08 00:36:20;;;;;;;2.78;0.30;;;6.20;93.60;;;;;;4963325;28;20500;-85
2022/04/08 00:38:48;;;;;;;5.05;0.40;;;6.10;93.50;;;;;;4959456;28;20042;-84
2022/04/08 00:41:15;;;;;;;6.22;0.52;;;6.10;93.50;;;;;;4940064;29;20043;-84
2022/04/08 00:43:42;;;;;;;4.47;0.60;;;6.10;93.40;;;;;;4955523;28;20062;-84
2022/04/08 00:46:09;;;;;;;3.72;0.50;;;6.00;93.30;;;;;;4947404;28;20090;-84
2022/04/08 00:48:37;;;;;;;4.25;0.45;;;6.10;93.40;;;;;;4964924;28;20044;-85
2022/04/08 00:51:08;;;;;;;5.28;0.85;;;6.10;93.40;;;;;;4971766;28;20054;-84
2022/04/08 00:53:36;;;;;;;5.30;0.82;;;6.10;93.40;;;;;;4950567;28;20054;-84
2022/04/08 00:56:04;;;;;;;2.95;0.45;;;6.10;93.10;;;;;;4972336;28;20062;-84
2022/04/08 00:58:32;;;;;;;3.47;0.40;;;6.10;93.20;;;;;;4955143;28;20043;-84
2022/04/08 01:00:59;;;;;;;2.20;0.40;;;6.10;93.20;;;;;;4955307;28;20117;-84
2022/04/08 01:03:27;;;;;;;3.58;0.52;;;6.10;93.20;;;;;;4958402;28;20101;-84
2022/04/08 01:05:56;;;;;;;2.55;0.38;;;6.10;93.20;;;;;;4953694;28;20791;-84
2022/04/08 01:08:23;;;;;;;5.72;0.95;;;6.10;93.10;;;;;;4953939;28;20039;-82
2022/04/08 01:10:50;;;;;;;2.08;0.30;;;6.10;93.10;;;;;;4954899;28;20051;-84
2022/04/08 01:13:17;;;;;;;5.03;1.08;;;6.10;93.00;;;;;;4977593;28;20496;-83
2022/04/08 01:15:45;;;;;;;3.72;0.38;;;6.10;92.90;;;;;;4945441;28;20043;-85
2022/04/08 01:18:12;;;;;;;2.30;0.40;;;6.10;92.90;;;;;;4965922;28;20051;-84
2022/04/08 01:20:39;;;;;;;2.08;0.50;;;6.10;92.90;;;;;;4954459;28;20128;-85
2022/04/08 01:23:06;;;;;;;4.20;0.40;;;6.10;92.80;;;;;;4985411;28;20067;-85
2022/04/08 01:25:33;;;;;;;2.55;0.40;;;6.10;92.80;;;;;;4982048;28;20049;-85
2022/04/08 01:28:00;;;;;;;3.50;0.52;;;6.00;92.80;;;;;;4960816;28;20055;-85
2022/04/08 01:30:27;;;;;;;3.95;1.00;;;5.90;92.70;;;;;;4958434;28;20137;-85
2022/04/08 01:32:54;;;;;;;6.10;0.77;;;5.80;92.80;;;;;;4958849;28;20450;-86
2022/04/08 01:35:22;;;;;;;2.63;0.40;;;5.80;92.80;;;;;;4942382;28;20541;-86
2022/04/08 01:37:52;;;;;;;4.82;0.52;;;5.70;92.90;;;;;;4966229;28;20085;-86
2022/04/08 01:40:19;;;;;;;5.43;0.40;;;5.70;92.80;;;;;;4973064;28;20492;-85
2022/04/08 01:42:46;;;;;;;3.00;0.50;;;5.60;92.80;;;;;;4926703;28;20054;-84
2022/04/08 01:45:13;;;;;;;3.25;0.65;;;5.60;92.70;;;;;;4958303;28;20043;-84
2022/04/08 01:47:40;;;;;;;8.18;1.33;;;5.60;92.80;;;;;;4944076;28;20443;-86
2022/04/08 01:50:08;;;;;;;3.47;1.02;;;5.50;92.70;;;;;;4967021;28;20078;-84
2022/04/08 01:52:35;;;;;;;4.28;0.43;;;5.50;92.70;;;;;;4959340;28;20047;-84
2022/04/08 01:55:05;;;;;;;4.60;0.50;;;5.50;92.60;;;;;;4962536;28;20121;-86
2022/04/08 01:57:33;;;;;;;6.30;1.40;;;5.40;92.60;;;;;;4973600;28;20057;-85
2022/04/08 02:00:03;;;;;;;4.03;0.60;;;5.40;92.70;;;;;;4958110;28;20553;-85
2022/04/08 02:02:38;;;;;;;1.27;0.30;;;5.40;92.60;;;;;;4975018;28;20051;-85
2022/04/08 02:05:08;;;;;;;3.60;0.40;;;5.30;92.70;;;;;;4996873;28;20038;-85
2022/04/08 02:07:35;;;;;;;3.03;0.73;;;5.30;92.70;;;;;;4956860;28;20093;-85
2022/04/08 02:10:06;;;;;;;2.92;0.30;;;5.30;92.70;;;;;;4959114;28;20059;-85
2022/04/08 02:12:33;;;;;;;5.20;0.88;;;5.20;92.70;;;;;;4967972;28;20530;-84
2022/04/08 02:15:01;;;;;;;3.50;0.50;;;5.20;92.70;;;;;;4959443;28;20051;-84
2022/04/08 02:17:30;;;;;;;7.38;1.40;;;5.20;92.70;;;;;;4958817;28;20194;-86
2022/04/08 02:19:57;;;;;;;4.07;0.40;;;5.10;92.70;;;;;;4977791;28;20135;-85
2022/04/08 02:22:25;;;;;;;2.90;0.40;;;5.10;92.80;;;;;;4973093;28;20106;-85
2022/04/08 02:24:53;;;;;;;2.47;0.30;;;5.10;92.80;;;;;;4971273;28;20039;-85
2022/04/08 02:27:23;;;;;;;3.65;0.95;;;5.00;92.80;;;;;;4973649;28;20055;-85
2022/04/08 02:29:50;;;;;;;3.05;0.30;;;5.10;92.80;;;;;;4973524;28;20515;-85
2022/04/08 02:32:18;;;;;;;4.32;0.60;;;5.00;92.80;;;;;;4957593;28;20141;-85
2022/04/08 02:34:44;;;;;;;2.92;0.50;;;5.00;92.80;;;;;;4972273;28;20570;-85
2022/04/08 02:37:12;;;;;;;3.50;0.40;;;5.00;92.80;;;;;;4957728;28;20059;-85
2022/04/08 02:39:39;;;;;;;3.20;0.40;;;5.00;92.90;;;;;;4973497;28;20105;-85
2022/04/08 02:42:08;;;;;;;1.52;0.20;;;5.00;92.90;;;;;;4957576;28;20066;-86
2022/04/08 02:44:35;;;;;;;3.58;0.22;;;5.00;92.90;;;;;;4972915;28;20046;-85
2022/04/08 02:47:02;;;;;;;2.85;0.30;;;5.00;92.90;;;;;;4973235;28;20065;-84
2022/04/08 02:49:29;;;;;;;1.85;0.20;;;5.00;92.90;;;;;;4989490;28;20047;-85
2022/04/08 02:51:57;;;;;;;4.68;0.50;;;4.90;92.90;;;;;;4960480;28;20476;-85
2022/04/08 02:54:24;;;;;;;3.45;0.35;;;4.90;93.00;;;;;;4958121;28;20054;-85
2022/04/08 02:56:51;;;;;;;2.70;0.40;;;4.90;93.00;;;;;;4970064;28;20062;-85
2022/04/08 02:59:18;;;;;;;2.42;0.30;;;4.90;93.00;;;;;;4986376;28;20039;-85
2022/04/08 03:01:45;;;;;;;2.55;0.35;;;4.90;93.00;;;;;;4971179;28;20098;-85
2022/04/08 03:04:13;;;;;;;3.35;0.80;;;4.90;93.10;;;;;;4955090;28;20071;-85
2022/04/08 03:06:40;;;;;;;2.20;0.38;;;4.90;93.10;;;;;;4956820;28;20491;-85
2022/04/08 03:09:07;;;;;;;3.40;0.40;;;4.90;93.10;;;;;;4981949;28;20447;-85
2022/04/08 03:11:34;;;;;;;5.25;0.50;;;4.90;93.00;;;;;;4952134;28;20038;-85
2022/04/08 03:14:03;;;;;;;5.85;0.57;;;5.00;93.00;;;;;;4954197;28;20480;-85
2022/04/08 03:16:30;;;;;;;2.22;0.30;;;5.00;93.00;;;;;;4939781;28;20152;-85
2022/04/08 03:18:58;;;;;;;1.80;0.40;;;5.00;92.90;;;;;;4969464;28;20399;-85
2022/04/08 03:21:27;;;;;;;5.82;0.63;;;5.00;93.20;;;;;;4966980;28;20044;-85
2022/04/08 03:23:54;;;;;;;4.80;0.60;;;5.10;92.90;;;;;;4954464;28;20299;-85
2022/04/08 03:26:21;;;;;;;5.88;0.73;;;5.10;92.90;;;;;;4952315;28;20090;-85
2022/04/08 03:28:49;;;;;;;4.53;0.68;;;5.10;92.80;;;;;;4944634;28;20047;-85
2022/04/08 03:31:16;;;;;;;4.57;0.50;;;5.10;92.70;;;;;;4960267;28;20050;-86
2022/04/08 03:33:43;;;;;;;5.82;1.15;;;5.10;92.60;;;;;;4970141;28;20065;-84
2022/04/08 03:36:10;;;;;;;4.68;0.60;;;5.00;92.60;;;;;;4964799;28;20051;-84
2022/04/08 03:38:37;;;;;;;2.97;0.40;;;5.00;92.60;;;;;;4961762;28;20058;-84
2022/04/08 03:41:04;;;;;;;4.03;0.73;;;4.90;92.70;;;;;;4954144;28;20043;-84
2022/04/08 03:43:32;;;;;;;1.73;0.50;;;4.90;92.70;;;;;;4962381;28;20054;-85
2022/04/08 03:45:59;;;;;;;4.65;0.80;;;4.90;92.70;;;;;;4961973;28;20051;-84
2022/04/08 03:48:29;;;;;;;3.92;0.65;;;4.90;92.70;;;;;;4957761;28;20038;-85
2022/04/08 03:50:56;;;;;;;3.47;0.57;;;4.90;92.80;;;;;;4959644;28;20043;-84
2022/04/08 03:53:23;;;;;;;5.00;0.73;;;4.90;92.70;;;;;;4983414;28;20384;-85
2022/04/08 03:55:50;;;;;;;2.20;0.32;;;4.90;92.90;;;;;;4958333;28;20047;-85
2022/04/08 03:58:17;;;;;;;2.78;0.40;;;4.80;92.80;;;;;;4960008;28;20050;-85
2022/04/08 04:00:46;;;;;;;3.90;0.50;;;4.80;92.80;;;;;;4961464;28;20488;-84
2022/04/08 04:03:14;;;;;;;1.92;0.30;;;4.80;92.90;;;;;;4959782;28;20051;-83
2022/04/08 04:05:43;;;;;;;1.85;0.30;;;4.70;92.90;;;;;;4944263;28;20053;-84
2022/04/08 04:08:18;;;;;;;3.75;1.10;;;4.70;92.90;;;;;;4975096;28;20053;-86
2022/04/08 04:10:51;;;;;;;1.35;0.20;;;4.70;93.00;;;;;;4976084;28;20043;-83
2022/04/08 04:13:18;;;;;;;2.40;0.68;;;4.60;93.00;;;;;;4962735;28;20546;-85
2022/04/08 04:15:45;;;;;;;1.13;0.30;;;4.60;93.00;;;;;;4965096;28;20056;-85
2022/04/08 04:18:12;;;;;;;3.30;0.35;;;4.60;93.10;;;;;;4967811;28;20053;-84
2022/04/08 04:20:39;;;;;;;2.00;0.30;;;4.50;93.30;;;;;;4978786;28;20042;-84
2022/04/08 04:23:08;;;;;;;2.63;0.20;;;4.60;93.10;;;;;;4964813;28;20057;-85
2022/04/08 04:25:35;;;;;;;0.85;0.22;;;4.50;93.40;;;;;;4963824;28;20493;-84
2022/04/08 04:28:04;;;;;;;1.70;0.45;;;4.50;93.10;;;;;;4946747;28;20058;-84
2022/04/08 04:30:33;;;;;;;2.17;0.55;;;4.40;93.10;;;;;;4969588;28;20054;-84
2022/04/08 04:33:00;;;;;;;2.47;0.20;;;4.40;93.10;;;;;;4972616;28;20560;-84
2022/04/08 04:35:27;;;;;;;2.13;0.30;;;4.40;93.20;;;;;;4997768;28;20486;-84
2022/04/08 04:37:54;;;;;;;2.70;0.20;;;4.30;93.10;;;;;;4991303;28;20054;-85
2022/04/08 04:40:21;;;;;;;1.65;0.30;;;4.30;93.50;;;;;;4973408;28;20049;-84
2022/04/08 04:42:48;;;;;;;0.90;0.30;;;4.30;93.20;;;;;;4997149;28;20069;-84
2022/04/08 04:45:15;;;;;;;0.85;0.30;;;4.30;93.30;;;;;;4992854;28;20141;-80
2022/04/08 04:47:42;;;;;;;1.10;0.20;;;4.30;93.30;;;;;;4968714;28;20141;-79
2022/04/08 04:50:10;;;;;;;1.08;0.10;;;4.20;93.30;;;;;;4960006;28;20046;-79
2022/04/08 04:52:37;;;;;;;0.77;0.10;;;4.20;93.30;;;;;;4980628;28;20045;-80
2022/04/08 04:55:05;;;;;;;0.50;0.20;;;4.20;93.30;;;;;;4973569;28;20100;-79
2022/04/08 04:57:32;;;;;;;0.60;0.10;;;4.20;93.40;;;;;;4994318;28;20049;-79
2022/04/08 05:00:00;;;;;;;1.35;0.20;;;4.20;93.40;;;;;;4989965;28;20112;-79
2022/04/08 05:02:27;;;;;;;0.55;0.20;;;4.10;93.40;;;;;;4976151;28;20042;-78
2022/04/08 05:04:54;;;;;;;1.08;0.13;;;4.10;93.50;;;;;;4985694;28;20043;-79
2022/04/08 05:07:23;;;;;;;0.82;0.30;;;4.10;93.50;;;;;;4973340;28;20042;-79
2022/04/08 05:09:50;;;;;;;2.08;0.30;;;4.10;93.50;;;;;;4999040;28;20088;-79
2022/04/08 05:12:17;;;;;;;1.80;0.30;;;4.10;93.50;;;;;;4982252;28;20451;-79
2022/04/08 05:14:44;;;;;;;1.13;0.40;;;4.10;93.50;;;;;;4953975;28;20050;-79
2022/04/08 05:17:11;;;;;;;0.98;0.25;;;4.10;93.50;;;;;;4991309;28;20910;-79
2022/04/08 05:19:38;;;;;;;1.30;0.30;;;4.10;93.50;;;;;;4989530;28;20431;-79
2022/04/08 05:22:08;;;;;;;1.33;0.30;;;4.10;93.50;;;;;;4990142;28;20038;-80
2022/04/08 05:24:35;;;;;;;2.75;0.65;;;4.10;93.50;;;;;;4993830;28;20053;-79
2022/04/08 05:27:02;;;;;;;1.15;0.38;;;4.20;93.50;;;;;;4960509;28;20042;-79
2022/04/08 05:29:29;;;;;;;1.15;0.40;;;4.20;93.50;;;;;;4996049;28;20042;-81
2022/04/08 05:31:56;;;;;;;1.65;0.40;;;4.20;93.50;;;;;;4985831;28;20046;-78
2022/04/08 05:34:24;;;;;;;1.90;0.60;;;4.20;93.50;;;;;;4970522;28;20041;-79
2022/04/08 05:36:51;;;;;;;5.35;0.68;;;4.20;93.50;;;;;;4970479;28;20133;-79
2022/04/08 05:39:18;;;;;;;4.60;0.90;;;4.20;93.70;;;;;;4959528;28;20118;-80
2022/04/08 05:41:45;;;;;;;3.90;0.70;;;4.30;93.50;;;;;;4978938;28;20108;-79
2022/04/08 05:44:12;;;;;;;1.95;0.50;;;4.30;93.40;;;;;;4982886;28;20096;-78
2022/04/08 05:46:39;;;;;;;4.15;0.65;;;4.40;93.40;;;;;;4967767;28;20042;-80
2022/04/08 05:49:07;;;;;;;3.03;0.60;;;4.40;93.40;;;;;;4960351;28;20092;-78
2022/04/08 05:51:34;;;;;;;2.67;0.52;;;4.50;93.30;;;;;;4975667;28;20042;-78
2022/04/08 05:54:07;;;;;;;1.70;0.60;;;4.50;93.30;;;;;;4972720;28;20049;-79
2022/04/08 05:56:34;;;;;;;4.32;0.77;;;4.60;93.30;;;;;;4967211;28;20062;-79
2022/04/08 05:59:01;;;;;;;1.85;0.60;;;4.60;93.50;;;;;;4969904;28;20069;-79
2022/04/08 06:01:28;;;;;;;1.85;0.70;;;4.70;93.20;;;;;;4977256;28;21099;-78
2022/04/08 06:03:55;;;;;;;2.95;0.90;;;4.70;93.20;;;;;;4979082;28;20100;-79
2022/04/08 06:06:23;;;;;;;1.95;0.63;;;4.80;93.10;;;;;;4969674;28;20104;-78
2022/04/08 06:08:50;;;;;;;3.55;0.70;;;4.90;93.10;;;;;;4979649;28;20041;-80
2022/04/08 06:11:17;;;;;;;3.72;0.85;;;5.00;93.00;;;;;;4986681;28;20451;-80
2022/04/08 06:13:44;;;;;;;2.08;0.60;;;5.00;93.00;;;;;;4975929;28;20602;-80
2022/04/08 06:16:11;;;;;;;3.90;0.75;;;5.10;93.00;;;;;;4967163;28;20053;-86
2022/04/08 06:18:39;;;;;;;2.95;0.57;;;5.10;92.90;;;;;;4975918;28;20054;-85
2022/04/08 06:21:06;;;;;;;5.15;0.80;;;5.20;92.90;;;;;;4971567;28;20046;-85
2022/04/08 06:23:33;;;;;;;5.32;0.80;;;5.20;92.90;;;;;;4992612;28;20415;-80
2022/04/08 06:26:00;;;;;;;2.88;1.42;;;5.20;92.90;;;;;;4963207;28;20050;-81
2022/04/08 06:28:27;;;;;;;2.55;0.90;;;5.20;92.80;;;;;;4961674;28;20039;-84
2022/04/08 06:30:54;;;;;;;3.65;0.70;;;5.30;92.80;;;;;;4969371;28;20069;-85
2022/04/08 06:33:21;;;;;;;1.98;0.60;;;5.40;92.80;;;;;;4960602;28;20046;-86
2022/04/08 06:35:48;;;;;;;2.25;0.70;;;5.50;92.80;;;;;;4976372;28;20046;-86
2022/04/08 06:38:15;;;;;;;4.65;0.90;;;5.50;92.70;;;;;;4968889;28;20672;-87
2022/04/08 06:40:42;;;;;;;2.85;0.90;;;5.60;92.60;;;;;;4969541;28;20045;-86
2022/04/08 06:43:09;;;;;;;2.20;0.80;;;5.70;92.60;;;;;;4988882;28;20514;-85
2022/04/08 06:45:38;;;;;;;3.47;0.90;;;5.60;92.50;;;;;;4969439;28;20152;-85
2022/04/08 06:48:05;;;;;;;4.47;1.25;;;5.70;92.50;;;;;;4992390;28;20042;-85
2022/04/08 06:50:33;;;;;;;5.72;1.45;;;5.70;92.40;;;;;;4975797;28;20418;-85
2022/04/08 06:53:01;;;;;;;4.03;0.98;;;5.70;92.40;;;;;;4964098;28;20034;-85
2022/04/08 06:55:30;;;;;;;2.78;1.00;;;5.80;92.40;;;;;;4983294;28;20038;-83
2022/04/08 06:57:58;;;;;;;2.28;0.98;;;5.80;92.30;;;;;;4981953;28;20043;-84
2022/04/08 07:00:26;;;;;;;3.55;0.68;;;5.90;92.30;;;;;;4990273;28;20046;-84
2022/04/08 07:02:53;;;;;;;5.15;1.23;;;6.00;92.30;;;;;;4975743;28;20038;-84
2022/04/08 07:05:21;;;;;;;3.35;0.93;;;6.00;92.20;;;;;;4982928;28;20042;-84
2022/04/08 07:07:48;;;;;;;3.42;0.95;;;6.10;92.20;;;;;;4953039;28;20058;-84
2022/04/08 07:10:16;;;;;;;3.22;0.80;;;6.10;92.10;;;;;;4958228;28;20039;-83
2022/04/08 07:12:43;;;;;;;4.38;0.90;;;6.20;92.10;;;;;;4964558;28;20046;-83
2022/04/08 07:15:10;;;;;;;2.10;0.75;;;6.20;92.10;;;;;;4974827;28;20061;-83
2022/04/08 07:17:37;;;;;;;2.50;1.02;;;6.30;92.10;;;;;;5000454;28;20133;-88
2022/04/08 07:20:17;;;;;;;3.42;0.80;;;6.40;92.00;;;;;;4963306;28;20038;-88
2022/04/08 07:22:46;;;;;;;2.77;0.77;;;6.50;91.90;;;;;;4962829;28;20045;-86
2022/04/08 07:25:17;;;;;;;2.75;0.70;;;6.50;91.80;;;;;;4997344;28;20368;-87
2022/04/08 07:27:50;;;;;;;2.03;0.88;;;6.60;91.70;;;;;;5010624;28;20042;-85
2022/04/08 07:30:20;;;;;;;4.72;1.13;;;6.70;91.60;;;;;;4975637;28;20513;-77
2022/04/08 07:32:50;;;;;;;2.72;0.88;;;6.80;91.50;;;;;;4994344;28;20053;-77
2022/04/08 07:35:19;;;;;;;4.30;1.05;;;6.80;91.50;;;;;;4998821;28;20457;-78
2022/04/08 07:37:46;;;;;;;5.97;1.40;;;6.90;91.30;;;;;;4999692;28;20037;-77
2022/04/08 07:40:14;;;;;;;3.63;1.27;;;6.90;91.20;;;;;;4999311;28;20444;-78
2022/04/08 07:42:41;;;;;;;2.38;1.10;;;6.90;91.20;;;;;;4997859;28;20042;-78
2022/04/08 07:45:09;;;;;;;2.55;1.23;;;6.90;91.10;;;;;;4981790;28;20445;-85
2022/04/08 07:47:36;;;;;;;5.65;1.20;;;7.00;91.10;;;;;;4987660;28;20054;-78
2022/04/08 07:50:09;;;;;;;3.58;1.42;;;7.00;91.10;;;;;;4981322;28;20137;-76
2022/04/08 07:52:37;;;;;;;4.43;0.80;;;7.10;91.10;;;;;;4996240;28;20052;-78
2022/04/08 07:55:06;;;;;;;3.72;1.00;;;7.10;91.00;;;;;;4988338;28;20045;-78
2022/04/08 07:57:33;;;;;;;3.53;0.80;;;7.20;91.00;;;;;;4980370;28;20046;-77
2022/04/08 08:00:00;;;;;;;3.80;0.85;;;7.20;91.00;;;;;;4980375;28;20042;-78
2022/04/08 08:02:37;;;;;;;2.95;0.90;;;7.30;90.90;;;;;;4981597;28;20132;-79
2022/04/08 08:05:05;;;;;;;3.33;1.02;;;7.40;90.90;;;;;;4968266;28;20132;-78
2022/04/08 08:08:12;;;;;;;2.90;0.90;;;7.50;90.90;;;;;;4984595;28;20092;-80
2022/04/08 08:10:45;;;;;;;3.23;0.80;;;7.60;90.80;;;;;;4974230;28;20046;-78
2022/04/08 08:13:12;;;;;;;2.70;0.70;;;7.70;90.60;;;;;;4961061;28;20050;-86
2022/04/08 08:15:41;;;;;;;2.00;0.70;;;7.70;90.50;;;;;;4974687;28;20144;-79
2022/04/08 08:18:08;;;;;;;3.97;0.90;;;7.70;90.40;;;;;;4976198;28;20199;-79
2022/04/08 08:20:37;;;;;;;5.07;0.80;;;7.80;90.30;;;;;;4974779;28;20062;-84
2022/04/08 08:23:06;;;;;;;1.88;0.73;;;7.80;90.20;;;;;;4987653;28;20046;-79
2022/04/08 08:25:33;;;;;;;3.45;0.63;;;7.80;90.10;;;;;;4972287;28;20109;-83
2022/04/08 08:28:02;;;;;;;2.67;0.70;;;7.90;90.00;;;;;;4977988;28;20038;-80
2022/04/08 08:30:32;;;;;;;2.22;0.50;;;7.90;89.60;;;;;;4994118;28;20038;-87
2022/04/08 08:32:59;;;;;;;4.75;0.93;;;8.00;89.40;;;;;;4987166;28;20044;-89
2022/04/08 08:35:27;;;;;;;2.95;0.73;;;8.00;89.00;;;;;;4965919;28;20503;-88
2022/04/08 08:37:58;;;;;;;2.40;0.60;;;8.00;88.50;;;;;;4973199;28;20049;-85
2022/04/08 08:40:28;;;;;;;3.60;0.60;;;8.00;88.50;;;;;;4983671;28;20038;-79
2022/04/08 08:42:56;;;;;;;1.90;0.70;;;8.00;88.30;;;;;;4973547;28;20455;-80
2022/04/08 08:45:24;;;;;;;2.55;0.70;;;8.20;88.40;;;;;;4992980;28;20054;-81
2022/04/08 08:47:52;;;;;;;1.75;0.70;;;8.20;88.00;;;;;;4976592;28;20042;-79
2022/04/08 08:50:19;;;;;;;3.72;0.80;;;8.20;87.50;;;;;;4993514;28;20505;-79
2022/04/08 08:52:50;;;;;;;3.75;0.70;;;8.30;87.60;;;;;;4960282;28;20467;-79
2022/04/08 08:55:18;;;;;;;4.10;0.80;;;8.30;87.80;;;;;;4993436;28;20046;-80
2022/04/08 08:57:47;;;;;;;4.53;0.93;;;8.30;87.10;;;;;;4973974;28;20145;-78
2022/04/08 09:00:18;;;;;;;3.63;0.57;;;8.30;87.20;;;;;;4993493;28;20094;-80
2022/04/08 09:02:49;;;;;;;3.10;0.93;;;8.40;87.00;;;;;;4976446;28;20050;-79
2022/04/08 09:05:24;;;;;;;2.85;0.60;;;8.40;86.80;;;;;;4980570;28;20869;-78
2022/04/08 09:07:59;;;;;;;2.97;0.70;;;8.50;87.00;;;;;;4979564;28;20042;-78
2022/04/08 09:10:34;;;;;;;3.40;0.88;;;8.50;87.10;;;;;;4987960;28;20042;-89
2022/04/08 09:13:07;;;;;;;3.80;0.82;;;8.50;86.70;;;;;;4975863;28;20051;-86
2022/04/08 09:15:39;;;;;;;2.40;0.70;;;8.60;86.00;;;;;;4985506;28;20046;-78
2022/04/08 09:18:13;;;;;;;3.30;0.90;;;8.60;86.30;;;;;;4985402;28;20129;-78
2022/04/08 09:20:45;;;;;;;1.58;0.80;;;8.60;86.30;;;;;;4978536;28;20046;-77
2022/04/08 09:23:14;;;;;;;1.95;0.68;;;8.70;86.10;;;;;;4986762;28;20034;-77
2022/04/08 09:25:42;;;;;;;3.63;1.05;;;8.80;85.90;;;;;;4981444;28;20118;-78
2022/04/08 09:28:15;;;;;;;2.42;0.70;;;8.90;85.90;;;;;;4973405;28;20411;-78
2022/04/08 09:30:55;;;;;;;5.00;1.13;;;9.00;85.90;;;;;;4961021;28;20057;-78
2022/04/08 09:33:23;;;;;;;3.42;1.23;;;9.00;85.10;;;;;;4959454;28;20090;-78
2022/04/08 09:35:54;;;;;;;2.95;0.70;;;9.10;85.00;;;;;;4962790;28;20048;-76
2022/04/08 09:38:25;;;;;;;2.58;0.60;;;9.10;85.10;;;;;;4968564;28;20115;-76
2022/04/08 09:41:10;;;;;;;4.22;0.90;;;9.20;85.10;;;;;;4979775;28;20561;-77
2022/04/08 09:43:39;;;;;;;6.78;1.00;;;9.40;84.80;;;;;;4968530;28;20050;-76
2022/04/08 09:46:36;;;;;;;2.55;0.80;;;9.40;84.40;;;;;;4958020;28;20503;-78
2022/04/08 09:49:05;;;;;;;4.07;0.60;;;9.50;84.30;;;;;;4984442;28;20113;-81
2022/04/08 09:51:42;;;;;;;2.88;0.90;;;9.50;84.50;;;;;;4987652;28;20047;-81
2022/04/08 09:54:10;;;;;;;2.53;0.60;;;9.60;84.20;;;;;;4965815;28;20074;-82
2022/04/08 09:56:38;;;;;;;3.88;0.90;;;9.60;83.20;;;;;;4959083;28;20466;-85
2022/04/08 09:59:21;;;;;;;4.97;2.45;;;9.60;83.20;;;;;;4977398;28;20081;-85
2022/04/08 10:02:09;;;;;;;4.47;0.80;;;9.50;83.00;;;;;;4974109;28;20042;-85
2022/04/08 10:04:40;;;;;;;2.80;0.60;;;9.50;83.00;;;;;;4975120;28;20047;-84
2022/04/08 10:07:09;;;;;;;1.88;1.02;;;9.50;83.30;;;;;;4965801;28;20047;-84
2022/04/08 10:09:48;;;;;;;2.90;0.70;;;9.50;83.40;;;;;;4979232;28;20047;-85
2022/04/08 10:12:31;;;;;;;3.20;0.60;;;9.60;83.30;;;;;;4976369;28;20392;-87
2022/04/08 10:15:14;;;;;;;3.47;0.50;;;9.60;82.60;;;;;;4986151;28;20046;-86
2022/04/08 10:17:41;;;;;;;1.50;0.77;;;9.60;82.60;;;;;;4982203;28;20045;-85
2022/04/08 10:20:17;;;;;;;3.75;0.75;;;9.60;83.10;;;;;;4959810;28;20038;-85
2022/04/08 10:22:44;;;;;;;3.42;0.85;;;9.60;82.20;;;;;;4991099;28;20412;-86
2022/04/08 10:25:16;;;;;;;2.75;0.85;;;9.60;82.10;;;;;;4981700;28;20047;-84
2022/04/08 10:27:45;;;;;;;2.28;0.70;;;9.70;82.20;;;;;;4984609;28;20809;-85
2022/04/08 10:30:23;;;;;;;2.85;0.77;;;9.70;81.90;;;;;;4970417;28;20077;-84
2022/04/08 10:33:00;;;;;;;5.97;1.30;;;9.80;82.00;;;;;;4979934;28;20046;-86
2022/04/08 10:35:28;;;;;;;3.90;1.00;;;9.80;81.20;;;;;;4957843;28;20054;-85
2022/04/08 10:38:07;;;;;;;3.83;1.10;;;9.70;81.00;;;;;;4956523;28;20129;-85
2022/04/08 10:40:40;;;;;;;1.77;0.70;;;9.70;81.20;;;;;;4972321;28;20070;-80
2022/04/08 10:43:09;;;;;;;5.00;1.13;;;9.70;81.40;;;;;;4966559;28;20090;-80
2022/04/08 10:45:38;;;;;;;4.22;1.25;;;9.70;81.20;;;;;;4975285;28;20498;-81
2022/04/08 10:48:11;;;;;;;4.18;0.95;;;9.70;80.70;;;;;;4986865;28;20042;-84
2022/04/08 10:50:39;;;;;;;3.35;0.98;;;9.60;80.40;;;;;;4988957;28;20097;-83
2022/04/08 10:53:12;;;;;;;2.83;1.17;;;9.50;80.50;;;;;;4964386;28;20203;-82
2022/04/08 10:56:09;;;;;;;3.92;1.10;;;9.50;80.30;;;;;;4974630;28;20046;-84
2022/04/08 10:58:49;;;;;;;2.65;1.10;;;9.50;80.30;;;;;;4972944;28;20137;-83
2022/04/08 11:01:18;;;;;;;3.45;1.15;;;9.60;80.50;;;;;;4971632;28;20126;-83
2022/04/08 11:03:57;;;;;;;2.38;0.80;;;9.70;80.60;;;;;;4975720;28;20043;-83
2022/04/08 11:06:29;;;;;;;3.33;1.17;;;9.80;80.40;;;;;;4963124;28;20495;-83
2022/04/08 11:09:02;;;;;;;5.73;1.53;;;9.80;80.20;;;;;;4988369;28;20050;-85
2022/04/08 11:11:31;;;;;;;2.47;0.90;;;9.90;80.30;;;;;;4985416;28;20078;-84
2022/04/08 11:13:59;;;;;;;2.58;1.20;;;9.90;80.40;;;;;;4971052;28;20056;-84
2022/04/08 11:16:29;;;;;;;2.50;0.80;;;10.00;80.20;;;;;;4978922;28;20052;-85
2022/04/08 11:18:56;;;;;;;2.47;0.75;;;10.10;80.20;;;;;;4989230;28;20140;-83
2022/04/08 11:21:24;;;;;;;2.22;1.08;;;10.20;79.90;;;;;;5010152;28;20053;-83
2022/04/08 11:23:59;;;;;;;3.58;1.08;;;10.20;79.70;;;;;;4977275;28;20050;-83
2022/04/08 11:26:30;;;;;;;3.05;1.65;;;10.20;79.40;;;;;;4981695;28;20073;-83
2022/04/08 11:29:09;;;;;;;4.60;1.20;;;10.10;79.30;;;;;;4979568;28;20043;-81
2022/04/08 11:31:38;;;;;;;4.28;1.52;;;10.10;79.20;;;;;;4978461;28;20050;-82
2022/04/08 11:34:06;;;;;;;4.82;1.80;;;10.10;79.00;;;;;;4971070;28;20051;-83
2022/04/08 11:36:35;;;;;;;2.83;1.00;;;10.00;78.80;;;;;;4981277;28;20070;-81
2022/04/08 11:39:06;;;;;;;2.60;1.00;;;10.10;79.10;;;;;;4965196;28;20510;-82
2022/04/08 11:41:36;;;;;;;3.70;1.33;;;10.20;79.20;;;;;;5004229;28;20057;-83
2022/04/08 11:44:05;;;;;;;2.97;0.80;;;10.20;79.20;;;;;;4995403;28;20046;-87
2022/04/08 11:46:32;;;;;;;2.75;0.90;;;10.30;79.10;;;;;;4990843;28;20057;-86
2022/04/08 11:48:59;;;;;;;3.08;1.10;;;10.40;79.10;;;;;;4977519;28;20048;-86
2022/04/08 11:51:26;;;;;;;2.55;0.98;;;10.30;78.60;;;;;;4987282;28;20034;-87
2022/04/08 11:53:53;;;;;;;4.78;1.10;;;10.20;78.60;;;;;;4994874;28;20129;-87
2022/04/08 11:56:26;;;;;;;4.90;1.70;;;10.10;78.70;;;;;;4988369;28;20038;-86
2022/04/08 11:59:01;;;;;;;4.93;1.52;;;10.10;78.80;;;;;;4985557;28;20042;-86
2022/04/08 12:01:33;;;;;;;3.42;1.20;;;10.10;78.60;;;;;;4997741;28;20134;-84
2022/04/08 12:04:03;;;;;;;2.28;0.90;;;10.20;78.60;;;;;;4982347;28;20049;-79
2022/04/08 12:06:49;;;;;;;2.25;0.90;;;10.30;78.60;;;;;;4986879;28;20050;-82
2022/04/08 12:09:18;;;;;;;4.40;1.38;;;10.50;78.30;;;;;;4975987;28;20052;-85
2022/04/08 12:11:47;;;;;;;3.63;1.77;;;10.50;77.70;;;;;;4991699;28;20125;-84
2022/04/08 12:14:19;;;;;;;2.92;1.42;;;10.50;77.70;;;;;;4975419;28;20441;-84
2022/04/08 12:16:51;;;;;;;4.93;1.40;;;10.50;77.80;;;;;;4971186;28;20133;-84
2022/04/08 12:19:22;;;;;;;4.22;1.63;;;10.50;77.30;;;;;;4963796;28;20391;-84
2022/04/08 12:22:13;;;;;;;3.42;1.27;;;10.40;76.80;;;;;;4978507;28;20046;-84
2022/04/08 12:24:42;;;;;;;2.35;0.80;;;10.30;77.10;;;;;;4982264;28;20038;-85
2022/04/08 12:27:17;;;;;;;5.55;1.48;;;10.20;77.20;;;;;;4990841;28;20054;-83
2022/04/08 12:29:46;;;;;;;4.13;0.90;;;10.20;77.20;;;;;;4958504;28;20046;-83
2022/04/08 12:32:14;;;;;;;2.65;1.17;;;10.20;77.40;;;;;;4997098;28;20406;-83
2022/04/08 12:34:44;;;;;;;2.55;1.05;;;10.20;77.40;;;;;;4983211;28;20484;-84
2022/04/08 12:37:11;;;;;;;1.95;0.80;;;10.30;77.20;;;;;;4978277;28;20049;-83
2022/04/08 12:39:38;;;;;;;1.98;0.90;;;10.30;77.10;;;;;;4968582;28;20046;-86
2022/04/08 12:42:06;;;;;;;1.67;0.70;;;10.40;77.30;;;;;;4960200;28;20038;-84
2022/04/08 12:44:33;;;;;;;1.17;0.70;;;10.60;77.50;;;;;;5000786;28;20065;-84
2022/04/08 12:47:00;;;;;;;3.50;0.70;;;10.60;77.20;;;;;;4977856;28;20057;-85
2022/04/08 12:49:27;;;;;;;2.03;0.80;;;10.70;77.30;;;;;;4981308;28;20038;-85
2022/04/08 12:51:54;;;;;;;2.97;1.15;;;10.80;77.20;;;;;;4981052;28;20084;-84
2022/04/08 12:54:23;;;;;;;4.35;1.20;;;10.80;76.70;;;;;;4973240;28;20041;-86
2022/04/08 12:56:50;;;;;;;2.97;0.80;;;10.80;77.10;;;;;;4976941;28;20050;-86
2022/04/08 12:59:20;;;;;;;2.58;1.05;;;10.70;76.80;;;;;;4985912;28;20372;-84
2022/04/08 13:01:51;;;;;;;3.70;1.15;;;10.60;77.10;;;;;;4981644;28;20038;-86
2022/04/08 13:04:20;;;;;;;3.38;1.10;;;10.60;76.90;;;;;;4983437;28;20096;-85
2022/04/08 13:06:49;;;;;;;3.70;1.20;;;10.50;76.40;;;;;;4976749;28;20052;-85